Time;durP1;ratioP1;P1;durP2;ratioP2;P2;SDS_P1;SDS_P2;PMS_P1;PMS_P2;Temp;Humidity;BMP_temperature;BMP_pressure;BME280_temperature;BME280_humidity;BME280_pressure;Samples;Min_cycle;Max_cycle;Signal;HPM_P1;HPM_P2
2022/06/28 00:00:13;;;;;;;9.27;5.35;;;;;;;14.69;82.29;100389.66;6242581;23;20080;-81
2022/06/28 00:02:38;;;;;;;8.98;5.28;;;;;;;14.85;81.61;100389.66;6244672;23;20532;-81
2022/06/28 00:05:06;;;;;;;8.93;4.90;;;;;;;14.89;81.58;100386.06;6243771;23;20015;-77
2022/06/28 00:07:31;;;;;;;10.90;6.18;;;;;;;14.84;81.97;100388.00;6240759;23;20078;-78
2022/06/28 00:09:57;;;;;;;10.50;6.68;;;;;;;14.82;82.52;100383.59;6241607;23;20063;-78
2022/06/28 00:12:22;;;;;;;11.35;6.63;;;;;;;14.86;81.94;100380.31;6241317;23;20007;-78
2022/06/28 00:17:32;;;;;;;10.70;6.60;;;;;;;14.69;82.73;100378.69;6240652;23;20077;-78
2022/06/28 00:19:57;;;;;;;10.68;6.65;;;;;;;14.68;82.63;100374.31;6240990;23;20087;-76
2022/06/28 00:22:22;;;;;;;11.15;6.68;;;;;;;14.82;81.87;100374.53;6240078;23;20035;-76
2022/06/28 00:24:47;;;;;;;11.85;6.00;;;;;;;14.76;81.89;100379.22;6240718;23;20659;-78
2022/06/28 00:27:13;;;;;;;10.23;6.43;;;;;;;14.71;82.18;100374.56;6241648;23;20008;-79
2022/06/28 00:29:39;;;;;;;12.43;5.97;;;;;;;14.76;82.31;100379.22;6241587;23;20301;-78
2022/06/28 00:32:05;;;;;;;13.98;7.53;;;;;;;14.73;82.40;100376.19;6241063;23;20007;-78
2022/06/28 00:34:30;;;;;;;11.23;6.22;;;;;;;14.88;81.57;100372.63;6240768;23;20087;-78
2022/06/28 00:36:55;;;;;;;11.03;6.97;;;;;;;14.67;81.86;100373.47;6240758;23;20450;-78
2022/06/28 00:39:20;;;;;;;9.13;5.30;;;;;;;14.88;80.86;100375.38;6240934;23;20217;-78
2022/06/28 00:41:46;;;;;;;9.48;5.43;;;;;;;14.62;81.57;100378.16;6241618;23;20011;-78
2022/06/28 00:44:13;;;;;;;12.38;5.88;;;;;;;14.73;80.76;100370.69;6240775;23;20008;-77
2022/06/28 00:46:38;;;;;;;10.18;5.22;;;;;;;14.76;80.89;100375.66;6241077;23;20341;-78
2022/06/28 00:49:04;;;;;;;9.48;5.43;;;;;;;14.94;79.90;100382.50;6241212;23;20008;-78
2022/06/28 00:51:31;;;;;;;8.65;5.13;;;;;;;14.95;80.12;100384.13;6239641;23;20008;-76
2022/06/28 00:53:56;;;;;;;8.80;5.25;;;;;;;14.80;80.68;100388.56;6240212;23;20456;-76
2022/06/28 00:56:22;;;;;;;8.60;5.07;;;;;;;14.82;80.37;100383.59;6242897;23;20000;-81
2022/06/28 00:58:47;;;;;;;12.45;4.60;;;;;;;14.87;80.53;100387.47;6244711;23;20083;-81
2022/06/28 01:01:13;;;;;;;9.40;5.85;;;;;;;14.81;80.33;100384.69;6243688;23;20001;-76
2022/06/28 01:03:38;;;;;;;8.77;5.30;;;;;;;14.89;79.64;100388.00;6239940;23;20004;-76
2022/06/28 01:06:04;;;;;;;10.90;5.13;;;;;;;14.87;79.93;100392.97;6239536;23;20011;-78
2022/06/28 01:08:30;;;;;;;9.90;5.15;;;;;;;14.69;79.95;100389.66;6240769;23;20016;-78
2022/06/28 01:10:55;;;;;;;9.20;5.32;;;;;;;14.69;80.27;100392.41;6240851;23;20008;-79
2022/06/28 01:13:21;;;;;;;9.70;5.55;;;;;;;14.69;80.49;100392.41;6241339;23;20005;-79
2022/06/28 01:15:46;;;;;;;15.40;5.93;;;;;;;14.53;80.79;100392.44;6242274;23;20438;-83
2022/06/28 01:18:12;;;;;;;7.95;4.93;;;;;;;14.45;80.98;100388.31;6245380;23;20004;-84
2022/06/28 01:20:41;;;;;;;10.23;6.05;;;;;;;14.57;80.28;100396.28;6218439;23;20475;-82
2022/06/28 01:23:07;;;;;;;10.85;5.32;;;;;;;14.56;80.66;100394.59;6244590;23;20011;-81
2022/06/28 01:25:32;;;;;;;9.02;5.45;;;;;;;14.75;79.73;100396.78;6245501;23;20020;-78
2022/06/28 01:27:58;;;;;;;9.02;5.00;;;;;;;14.47;80.26;100404.50;6243256;23;20464;-78
2022/06/28 01:30:24;;;;;;;14.90;5.63;;;;;;;14.56;80.65;100400.09;6242773;23;20175;-78
2022/06/28 01:32:49;;;;;;;8.77;5.45;;;;;;;14.54;79.47;100406.97;6242803;23;20026;-79
2022/06/28 01:35:15;;;;;;;11.93;6.07;;;;;;;14.51;79.99;100411.09;6243238;23;20011;-78
2022/06/28 01:37:40;;;;;;;14.23;5.47;;;;;;;14.48;80.21;100411.66;6243077;23;20034;-80
2022/06/28 01:40:07;;;;;;;10.52;6.05;;;;;;;14.46;79.73;100416.59;6242721;23;20012;-79
2022/06/28 01:42:33;;;;;;;10.55;5.20;;;;;;;14.35;80.18;100413.84;6246780;23;20004;-81
2022/06/28 01:45:00;;;;;;;9.35;5.18;;;;;;;14.36;80.80;100423.72;6246255;23;20077;-82
2022/06/28 01:47:29;;;;;;;11.80;5.53;;;;;;;14.35;80.60;100427.56;6246966;23;20004;-81
2022/06/28 01:49:55;;;;;;;9.80;4.90;;;;;;;14.22;80.82;100422.59;6247120;23;20008;-82
2022/06/28 01:52:21;;;;;;;8.23;4.72;;;;;;;14.35;80.80;100421.25;6246742;23;20057;-81
2022/06/28 01:54:46;;;;;;;10.27;5.05;;;;;;;14.67;79.46;100427.53;6246639;23;20004;-81
2022/06/28 01:57:12;;;;;;;8.25;4.53;;;;;;;14.65;78.92;100424.22;6245926;23;20027;-80
2022/06/28 01:59:39;;;;;;;7.97;4.88;;;;;;;14.43;79.76;100428.09;6245542;23;20363;-80
2022/06/28 02:02:05;;;;;;;12.43;5.22;;;;;;;14.59;79.45;100417.94;6243354;23;20004;-77
2022/06/28 02:04:30;;;;;;;8.52;4.45;;;;;;;14.69;79.11;100430.81;6242741;23;20574;-79
2022/06/28 02:06:57;;;;;;;9.45;4.80;;;;;;;14.55;78.88;100425.06;6244060;23;20011;-81
2022/06/28 02:09:23;;;;;;;10.25;4.97;;;;;;;14.61;79.25;100436.84;6245517;23;20412;-82
2022/06/28 02:11:49;;;;;;;9.38;5.03;;;;;;;14.47;79.79;100429.19;6245681;23;20088;-81
2022/06/28 02:14:14;;;;;;;10.50;6.75;;;;;;;14.61;79.05;100434.13;6245614;23;20004;-81
2022/06/28 02:16:39;;;;;;;14.43;6.43;;;;;;;14.60;79.23;100438.81;6244286;23;20062;-78
2022/06/28 02:19:05;;;;;;;13.25;5.90;;;;;;;14.36;79.98;100444.81;6242911;23;20416;-78
2022/06/28 02:21:38;;;;;;;15.25;5.68;;;;;;;14.58;78.76;100441.00;6243065;23;20011;-78
2022/06/28 02:24:04;;;;;;;8.38;4.85;;;;;;;14.47;78.84;100445.66;6242629;23;20030;-78
2022/06/28 02:26:32;;;;;;;10.57;6.07;;;;;;;14.44;79.22;100446.22;6242388;23;20075;-78
2022/06/28 02:29:00;;;;;;;8.10;4.50;;;;;;;14.59;78.97;100443.47;6242307;23;20301;-77
2022/06/28 02:31:26;;;;;;;8.98;5.65;;;;;;;14.83;78.23;100436.59;6243796;23;20032;-81
2022/06/28 02:33:51;;;;;;;11.80;5.43;;;;;;;14.75;78.61;100443.44;6245082;23;20012;-81
2022/06/28 02:41:45;;;;;;;9.65;4.88;;;;;;;14.52;78.60;100451.13;6253595;23;20091;-77
2022/06/28 02:44:10;;;;;;;9.18;5.32;;;;;;;14.41;78.44;100446.75;6241786;23;20008;-78
2022/06/28 02:46:36;;;;;;;8.23;5.57;;;;;;;14.53;79.01;100450.03;6242563;23;20050;-79
2022/06/28 02:49:01;;;;;;;10.93;5.78;;;;;;;14.57;78.71;100445.66;6242912;23;20070;-79
2022/06/28 02:51:27;;;;;;;8.57;5.32;;;;;;;14.57;79.15;100447.56;6241620;23;20019;-79
2022/06/28 02:53:52;;;;;;;9.60;5.97;;;;;;;14.46;78.87;100449.50;6241521;23;20367;-79
2022/06/28 02:56:18;;;;;;;9.85;6.18;;;;;;;14.23;80.26;100451.69;6216105;23;20004;-80
2022/06/28 02:58:43;;;;;;;11.45;5.13;;;;;;;14.22;80.46;100453.59;6246409;23;20030;-81
2022/06/28 03:01:08;;;;;;;11.23;6.03;;;;;;;14.16;79.99;100451.94;6246043;23;20000;-80
2022/06/28 03:03:34;;;;;;;9.40;5.38;;;;;;;14.02;80.45;100457.13;6246561;23;20432;-83
2022/06/28 03:05:59;;;;;;;14.18;6.00;;;;;;;14.27;79.60;100446.47;6246773;23;19996;-83
2022/06/28 03:08:24;;;;;;;10.23;6.07;;;;;;;14.43;79.08;100455.53;6216143;23;20004;-79
2022/06/28 03:10:50;;;;;;;12.82;5.82;;;;;;;14.33;79.23;100451.69;6242828;23;20007;-78
2022/06/28 03:13:15;;;;;;;9.30;5.80;;;;;;;14.33;79.08;100457.19;6242720;23;20008;-78
2022/06/28 03:15:41;;;;;;;11.75;6.75;;;;;;;14.18;79.07;100460.72;6242275;23;20016;-79
2022/06/28 03:18:06;;;;;;;11.65;6.13;;;;;;;13.92;80.99;100463.41;6242544;23;20421;-78
2022/06/28 03:20:31;;;;;;;12.90;6.28;;;;;;;13.84;81.33;100467.50;6240977;23;20087;-78
2022/06/28 03:22:57;;;;;;;11.43;7.45;;;;;;;13.87;81.14;100456.00;6245470;23;20004;-81
2022/06/28 03:25:22;;;;;;;10.70;6.70;;;;;;;13.95;80.93;100459.31;6245378;23;20016;-80
2022/06/28 03:27:48;;;;;;;15.98;7.22;;;;;;;14.07;80.74;100468.13;6243267;23;20723;-78
2022/06/28 03:30:14;;;;;;;10.43;6.40;;;;;;;14.06;80.54;100471.09;6240091;23;20004;-78
2022/06/28 03:32:40;;;;;;;12.30;7.80;;;;;;;14.23;79.71;100473.63;6240488;23;19996;-78
2022/06/28 03:35:06;;;;;;;11.77;6.97;;;;;;;14.11;80.15;100473.88;6240073;23;20062;-77
2022/06/28 03:37:31;;;;;;;13.27;7.88;;;;;;;14.16;80.02;100476.63;6240349;23;20026;-78
2022/06/28 03:39:56;;;;;;;11.18;6.68;;;;;;;14.03;80.61;100475.25;6241521;23;20008;-78
2022/06/28 03:42:22;;;;;;;9.05;6.03;;;;;;;14.04;80.87;100474.13;6241741;23;20034;-80
2022/06/28 03:44:47;;;;;;;12.32;7.20;;;;;;;14.06;80.96;100482.91;6243521;23;20371;-80
2022/06/28 03:47:12;;;;;;;10.75;6.55;;;;;;;13.98;81.13;100484.25;6243293;23;20459;-77
2022/06/28 03:49:38;;;;;;;13.57;7.17;;;;;;;14.10;80.49;100484.00;6241930;23;20062;-78
2022/06/28 03:52:03;;;;;;;11.02;7.13;;;;;;;14.22;79.90;100482.94;6241447;23;20212;-78
2022/06/28 03:54:29;;;;;;;14.68;6.53;;;;;;;13.92;81.38;100490.81;6241956;23;20031;-79
2022/06/28 03:56:54;;;;;;;13.30;7.30;;;;;;;14.10;81.55;100492.25;6242282;23;20004;-79
2022/06/28 03:59:19;;;;;;;15.93;8.13;;;;;;;13.87;81.68;100501.78;6242161;23;20007;-79
2022/06/28 04:01:45;;;;;;;14.63;7.78;;;;;;;13.84;82.22;100499.56;6243554;23;20004;-81
2022/06/28 04:04:10;;;;;;;13.55;7.57;;;;;;;13.93;81.86;100497.13;6245288;23;20095;-81
2022/06/28 04:06:35;;;;;;;11.47;6.50;;;;;;;13.83;81.31;100497.94;6244969;23;20687;-82
2022/06/28 04:09:01;;;;;;;10.60;6.70;;;;;;;13.82;81.88;100491.63;6246051;23;20213;-83
2022/06/28 04:11:26;;;;;;;13.95;8.20;;;;;;;13.69;82.75;100501.16;6245410;23;20412;-77
2022/06/28 04:13:53;;;;;;;14.70;8.30;;;;;;;13.79;82.47;100500.34;6240212;23;20424;-77
2022/06/28 04:16:20;;;;;;;12.48;7.65;;;;;;;13.93;81.86;100502.63;6240431;23;20404;-78
2022/06/28 04:18:46;;;;;;;19.02;7.28;;;;;;;14.02;82.02;100501.00;6240571;23;20008;-78
2022/06/28 04:21:14;;;;;;;12.63;6.30;;;;;;;14.08;81.59;100510.88;6240515;23;20381;-78
2022/06/28 04:23:40;;;;;;;13.68;6.15;;;;;;;14.05;82.08;100508.69;6241220;23;20036;-78
2022/06/28 04:26:06;;;;;;;14.25;7.95;;;;;;;14.10;82.12;100514.19;6240114;23;20102;-78
2022/06/28 04:28:31;;;;;;;10.75;6.95;;;;;;;14.24;81.22;100508.16;6241239;23;20004;-78
2022/06/28 04:30:57;;;;;;;12.88;7.95;;;;;;;14.23;82.07;100506.53;6241115;23;20010;-78
2022/06/28 04:33:23;;;;;;;11.23;7.28;;;;;;;14.22;81.52;100505.69;6242277;23;20038;-79
2022/06/28 04:35:48;;;;;;;11.68;6.82;;;;;;;14.33;81.66;100509.28;6241353;23;20065;-80
2022/06/28 04:38:13;;;;;;;13.30;7.05;;;;;;;14.41;81.04;100515.31;6241546;23;20027;-78
2022/06/28 04:40:39;;;;;;;13.50;7.67;;;;;;;14.37;80.95;100517.78;6240932;23;20000;-78
2022/06/28 04:43:04;;;;;;;14.77;7.53;;;;;;;14.33;81.25;100506.56;6241347;23;20229;-78
2022/06/28 04:45:30;;;;;;;11.45;7.57;;;;;;;14.39;81.16;100514.78;6240591;23;20012;-78
2022/06/28 04:47:56;;;;;;;12.57;7.78;;;;;;;14.45;80.83;100510.94;6241660;23;20016;-78
2022/06/28 04:50:21;;;;;;;11.93;7.18;;;;;;;14.27;81.78;100515.84;6240488;23;20297;-79
2022/06/28 04:52:46;;;;;;;12.35;7.55;;;;;;;14.09;82.62;100509.81;6242719;23;20004;-81
2022/06/28 04:55:12;;;;;;;16.15;8.30;;;;;;;14.33;82.14;100514.78;6243070;23;20007;-79
2022/06/28 04:57:37;;;;;;;14.77;8.75;;;;;;;14.24;82.47;100514.47;6243590;23;20005;-81
2022/06/28 05:00:04;;;;;;;12.73;7.45;;;;;;;14.36;82.14;100513.38;6244646;23;20000;-81
2022/06/28 05:02:29;;;;;;;16.17;8.38;;;;;;;14.33;82.45;100517.53;6245491;23;20008;-81
2022/06/28 05:04:55;;;;;;;14.13;8.43;;;;;;;14.21;83.28;100511.47;6244828;23;20714;-80
2022/06/28 05:07:20;;;;;;;14.90;7.95;;;;;;;14.36;82.24;100513.38;6246085;23;20008;-81
2022/06/28 05:09:45;;;;;;;13.57;8.45;;;;;;;14.32;82.83;100520.53;6246560;23;20321;-81
2022/06/28 05:12:11;;;;;;;14.03;7.80;;;;;;;14.25;83.37;100515.31;6245834;23;20004;-78
2022/06/28 05:14:36;;;;;;;12.05;7.43;;;;;;;14.43;82.66;100513.13;6242665;23;20261;-78
2022/06/28 05:17:02;;;;;;;11.80;7.37;;;;;;;14.54;82.54;100517.53;6242328;23;20455;-76
2022/06/28 05:19:30;;;;;;;13.02;8.13;;;;;;;14.26;83.31;100527.91;6242074;23;20226;-77
2022/06/28 05:21:55;;;;;;;14.57;7.60;;;;;;;14.61;82.77;100519.16;6243122;23;20000;-80
2022/06/28 05:24:20;;;;;;;15.75;8.30;;;;;;;14.52;83.21;100524.41;6218196;23;20428;-81
2022/06/28 05:26:46;;;;;;;13.67;6.87;;;;;;;14.62;82.57;100513.44;6246084;23;20015;-82
2022/06/28 05:29:11;;;;;;;15.80;7.45;;;;;;;14.68;82.34;100517.84;6247427;23;20210;-82
2022/06/28 05:31:37;;;;;;;14.15;8.40;;;;;;;14.79;82.13;100510.41;6246890;23;20408;-82
2022/06/28 05:34:02;;;;;;;12.82;6.72;;;;;;;14.70;82.63;100507.41;6246790;23;20008;-82
2022/06/28 05:36:28;;;;;;;16.88;8.52;;;;;;;14.63;82.83;100504.09;6246174;23;20037;-78
2022/06/28 05:38:53;;;;;;;12.82;7.32;;;;;;;14.70;83.03;100501.09;6242998;23;20062;-78
2022/06/28 05:41:19;;;;;;;12.25;6.93;;;;;;;14.87;82.52;100498.06;6242951;23;20038;-81
2022/06/28 05:43:44;;;;;;;12.63;7.43;;;;;;;14.69;83.08;100504.91;6245362;23;20035;-81
2022/06/28 05:46:10;;;;;;;11.65;6.82;;;;;;;14.83;82.96;100502.47;6244670;23;20019;-81
2022/06/28 05:48:36;;;;;;;15.45;6.70;;;;;;;15.02;82.15;100504.66;6242476;23;20011;-77
2022/06/28 05:51:02;;;;;;;9.95;6.25;;;;;;;15.06;81.91;100505.75;6241749;23;19996;-77
2022/06/28 05:53:27;;;;;;;12.90;7.22;;;;;;;15.09;81.98;100510.69;6242647;23;20012;-77
2022/06/28 05:55:52;;;;;;;12.07;7.10;;;;;;;15.28;81.31;100502.69;6241783;23;20000;-77
2022/06/28 05:58:17;;;;;;;12.52;6.20;;;;;;;15.24;81.65;100504.34;6242944;23;20012;-78
2022/06/28 06:00:43;;;;;;;12.73;6.67;;;;;;;15.45;80.80;100506.19;6242485;23;20036;-79
2022/06/28 06:03:08;;;;;;;10.95;5.40;;;;;;;15.36;80.86;100497.69;6242253;23;20795;-77
2022/06/28 06:05:34;;;;;;;9.40;6.07;;;;;;;15.37;80.39;100499.38;6241339;23;20019;-77
2022/06/28 06:07:59;;;;;;;10.00;5.38;;;;;;;15.57;79.69;100498.47;6244393;23;20447;-80
2022/06/28 06:10:25;;;;;;;15.15;5.88;;;;;;;15.69;79.40;100500.06;6244566;23;20010;-80
2022/06/28 06:12:50;;;;;;;12.50;5.55;;;;;;;15.80;79.53;100496.19;6246235;23;20008;-82
2022/06/28 06:15:15;;;;;;;10.02;4.72;;;;;;;15.73;78.93;100506.66;6245553;23;20302;-80
2022/06/28 06:17:41;;;;;;;8.82;4.18;;;;;;;15.84;79.54;100504.69;6219607;23;20005;-81
2022/06/28 06:20:08;;;;;;;11.52;4.78;;;;;;;15.75;79.41;100505.25;6244887;23;20004;-82
2022/06/28 06:22:34;;;;;;;9.27;5.55;;;;;;;16.03;78.60;100512.31;6242077;23;20115;-76
2022/06/28 06:24:59;;;;;;;6.20;4.05;;;;;;;16.12;77.63;100501.53;6241000;23;20008;-76
2022/06/28 06:27:25;;;;;;;5.93;3.33;;;;;;;15.95;76.96;100511.75;6242129;23;20006;-78
2022/06/28 06:29:50;;;;;;;12.07;4.67;;;;;;;16.13;77.96;100506.75;6242235;23;20416;-78
2022/06/28 06:32:15;;;;;;;5.17;2.47;;;;;;;16.25;76.23;100511.09;6242273;23;20309;-78
2022/06/28 06:34:40;;;;;;;4.57;2.65;;;;;;;16.19;75.17;100508.34;6241868;23;20747;-78
2022/06/28 06:37:06;;;;;;;6.72;3.33;;;;;;;16.35;75.08;100511.03;6243452;23;20004;-82
2022/06/28 06:39:31;;;;;;;6.90;2.80;;;;;;;16.38;74.08;100515.94;6246849;23;20001;-83
2022/06/28 06:41:57;;;;;;;7.60;3.13;;;;;;;16.17;73.21;100516.06;6245408;23;20333;-76
2022/06/28 06:44:22;;;;;;;5.28;1.92;;;;;;;16.42;74.11;100522.53;6240699;23;20000;-76
2022/06/28 06:46:47;;;;;;;5.03;2.67;;;;;;;16.50;72.98;100512.00;6241052;23;20022;-76
2022/06/28 06:49:14;;;;;;;6.63;3.30;;;;;;;16.44;73.03;100519.47;6241646;23;20008;-77
2022/06/28 06:51:44;;;;;;;6.15;2.10;;;;;;;16.39;72.17;100523.09;6241977;23;20000;-80
2022/06/28 06:54:09;;;;;;;3.85;1.85;;;;;;;16.65;73.15;100522.91;6243952;23;20008;-80
2022/06/28 06:56:35;;;;;;;4.63;2.15;;;;;;;16.75;72.43;100523.91;6243617;23;20054;-78
2022/06/28 06:59:00;;;;;;;6.28;1.60;;;;;;;16.94;72.06;100523.22;6241511;23;20007;-77
2022/06/28 07:01:28;;;;;;;5.17;1.57;;;;;;;17.01;71.35;100520.94;6241812;23;20384;-80
2022/06/28 07:03:54;;;;;;;8.13;1.90;;;;;;;16.89;70.79;100524.91;6241105;23;20231;-78
2022/06/28 07:06:19;;;;;;;6.70;1.27;;;;;;;16.96;69.86;100532.00;6240037;23;20448;-76
2022/06/28 07:08:45;;;;;;;6.53;1.58;;;;;;;17.02;69.90;100528.09;6240547;23;20004;-76
2022/06/28 07:11:10;;;;;;;7.40;1.50;;;;;;;17.07;69.49;100530.78;6240951;23;20012;-83
2022/06/28 07:13:36;;;;;;;4.38;1.58;;;;;;;17.14;68.58;100541.50;6242185;23;20206;-84
2022/06/28 07:16:01;;;;;;;4.57;1.50;;;;;;;17.17;68.27;100540.91;6241125;23;20046;-84
2022/06/28 07:18:27;;;;;;;4.75;1.20;;;;;;;17.12;67.69;100538.19;6241386;23;20209;-76
2022/06/28 07:20:54;;;;;;;4.30;1.35;;;;;;;17.10;65.65;100527.47;6240373;23;20004;-76
2022/06/28 07:23:19;;;;;;;4.85;1.25;;;;;;;17.26;66.43;100535.59;6241119;23;20083;-77
2022/06/28 07:25:44;;;;;;;4.78;1.50;;;;;;;17.30;66.03;100542.19;6241003;23;20044;-77
2022/06/28 07:28:10;;;;;;;4.20;1.42;;;;;;;17.41;66.81;100533.81;6214648;23;20043;-77
2022/06/28 07:30:36;;;;;;;2.92;1.10;;;;;;;17.27;66.90;100537.25;6241081;23;20069;-77
2022/06/28 07:33:01;;;;;;;6.05;1.23;;;;;;;17.36;66.78;100527.25;6241874;23;20123;-80
2022/06/28 07:35:27;;;;;;;3.05;0.95;;;;;;;17.38;65.79;100533.28;6241188;23;20432;-78
2022/06/28 07:37:52;;;;;;;4.88;1.40;;;;;;;17.50;67.99;100526.53;6244970;23;20001;-85
2022/06/28 07:40:17;;;;;;;7.53;1.40;;;;;;;17.55;67.10;100532.00;6246429;23;20000;-85
2022/06/28 07:42:43;;;;;;;4.00;1.00;;;;;;;17.66;66.23;100529.09;6216885;23;20256;-82
2022/06/28 07:45:08;;;;;;;3.22;2.00;;;;;;;17.60;65.95;100526.41;6241254;23;20006;-83
2022/06/28 07:47:34;;;;;;;3.30;1.48;;;;;;;17.50;64.84;100526.53;6240922;23;20049;-77
2022/06/28 07:52:43;;;;;;;6.93;1.77;;;;;;;17.42;64.74;100530.75;6240510;23;20058;-77
2022/06/28 07:55:10;;;;;;;3.55;2.00;;;;;;;17.58;65.63;100523.13;6240475;23;20361;-77
2022/06/28 07:57:36;;;;;;;5.43;1.80;;;;;;;17.66;64.98;100526.34;6240595;23;20012;-77
2022/06/28 08:00:03;;;;;;;5.03;1.98;;;;;;;17.82;65.28;100527.78;6241013;23;20648;-77
2022/06/28 08:02:29;;;;;;;2.75;1.10;;;;;;;17.94;65.10;100521.03;6213560;23;20007;-77
2022/06/28 08:04:55;;;;;;;5.25;1.27;;;;;;;17.60;64.80;100520.91;6240674;23;20012;-78
2022/06/28 08:07:20;;;;;;;4.25;1.20;;;;;;;17.89;63.80;100518.34;6213707;23;20316;-76
2022/06/28 08:09:45;;;;;;;3.17;1.27;;;;;;;17.81;63.17;100520.66;6240445;23;20046;-76
2022/06/28 08:12:11;;;;;;;9.60;1.42;;;;;;;18.09;63.70;100523.59;6241265;23;20012;-78
2022/06/28 08:14:36;;;;;;;4.95;1.92;;;;;;;18.11;62.67;100519.69;6240675;23;20037;-79
2022/06/28 08:17:02;;;;;;;7.82;1.35;;;;;;;18.15;63.44;100517.97;6242199;23;20007;-81
2022/06/28 08:19:28;;;;;;;6.60;1.60;;;;;;;18.08;62.83;100521.94;6242630;23;19996;-81
2022/06/28 08:21:53;;;;;;;4.47;1.23;;;;;;;18.07;62.32;100511.19;6243873;23;20019;-85
2022/06/28 08:24:19;;;;;;;4.93;1.27;;;;;;;18.10;61.31;100513.38;6246549;23;20004;-86
2022/06/28 08:26:44;;;;;;;2.60;0.93;;;;;;;18.24;59.95;100507.13;6246391;23;20075;-81
2022/06/28 08:29:14;;;;;;;1.08;0.60;;;;;;;18.48;60.42;100514.50;6243790;23;20810;-81
2022/06/28 08:31:40;;;;;;;4.68;0.98;;;;;;;18.53;60.25;100506.94;6244160;23;20000;-78
2022/06/28 08:34:05;;;;;;;5.15;0.90;;;;;;;18.70;60.86;100493.72;6241727;23;20022;-79
2022/06/28 08:36:31;;;;;;;6.43;2.13;;;;;;;18.70;60.31;100493.72;6240823;23;20007;-78
2022/06/28 08:38:57;;;;;;;6.72;1.65;;;;;;;18.63;59.43;100499.63;6240713;23;20079;-77
2022/06/28 08:41:26;;;;;;;4.00;1.50;;;;;;;18.92;59.89;100497.75;6240937;23;20042;-86
2022/06/28 08:43:53;;;;;;;3.10;1.13;;;;;;;18.84;58.64;100493.75;6246156;23;19997;-86
2022/06/28 08:46:20;;;;;;;2.70;0.82;;;;;;;18.98;57.78;100500.13;6246095;23;20352;-77
2022/06/28 08:48:55;;;;;;;2.70;0.90;;;;;;;19.23;58.20;100495.28;6214101;23;20012;-78
2022/06/28 08:51:22;;;;;;;3.67;1.30;;;;;;;19.47;56.91;100493.44;6240758;23;20498;-82
2022/06/28 08:53:48;;;;;;;7.88;1.10;;;;;;;19.36;56.36;100488.09;6243829;23;20079;-82
2022/06/28 08:56:15;;;;;;;4.90;1.42;;;;;;;19.44;55.43;100483.81;6244081;23;20016;-78
2022/06/28 08:58:43;;;;;;;4.75;1.75;;;;;;;19.61;56.14;100482.34;6240760;23;20420;-78
2022/06/28 09:01:10;;;;;;;2.35;0.70;;;;;;;19.64;54.00;100492.00;6240168;23;20423;-78
2022/06/28 09:03:37;;;;;;;2.50;1.08;;;;;;;19.59;54.58;100484.63;6240895;23;20008;-77
2022/06/28 09:06:03;;;;;;;3.25;1.15;;;;;;;20.00;54.29;100482.91;6239827;23;20031;-78
2022/06/28 09:08:29;;;;;;;1.77;0.88;;;;;;;20.05;54.37;100481.97;6242048;23;20000;-79
2022/06/28 09:10:54;;;;;;;5.25;0.90;;;;;;;20.20;54.68;100480.81;6241862;23;20023;-81
2022/06/28 09:13:20;;;;;;;4.33;0.97;;;;;;;20.38;54.66;100480.97;6239927;23;20000;-76
2022/06/28 09:16:00;;;;;;;2.22;0.90;;;;;;;20.40;51.48;100476.75;6239791;23;20237;-76
2022/06/28 09:18:35;;;;;;;4.22;1.50;;;;;;;20.59;51.38;100478.50;6244596;23;20012;-82
2022/06/28 09:21:01;;;;;;;4.20;0.60;;;;;;;20.47;49.89;100478.25;6243824;23;20459;-82
2022/06/28 09:23:30;;;;;;;4.97;0.98;;;;;;;20.61;50.82;100478.19;6240330;23;20000;-77
2022/06/28 09:26:01;;;;;;;3.13;1.33;;;;;;;20.61;51.48;100467.94;6239254;23;20016;-77
2022/06/28 09:28:29;;;;;;;1.75;0.70;;;;;;;21.03;50.85;100471.59;6245874;23;20012;-87
2022/06/28 09:31:16;;;;;;;4.72;0.70;;;;;;;21.29;50.54;100468.94;6246655;23;20416;-87
2022/06/28 09:33:43;;;;;;;1.70;0.73;;;;;;;21.42;50.06;100463.56;6239871;23;20758;-78
2022/06/28 09:36:14;;;;;;;5.75;0.70;;;;;;;21.58;49.22;100461.19;6239503;23;20030;-78
2022/06/28 09:38:39;;;;;;;4.22;1.08;;;;;;;21.49;48.51;100454.78;6243171;23;20058;-85
2022/06/28 09:41:06;;;;;;;3.72;0.77;;;;;;;21.59;49.51;100460.03;6217578;23;20004;-85
2022/06/28 09:43:34;;;;;;;7.47;1.20;;;;;;;21.74;48.97;100455.16;6245818;23;20004;-84
2022/06/28 09:46:03;;;;;;;8.35;1.85;;;;;;;21.84;50.69;100456.84;6246521;23;20089;-85
2022/06/28 09:48:37;;;;;;;3.65;1.00;;;;;;;22.02;48.51;100457.66;6247780;23;20324;-85
2022/06/28 09:51:02;;;;;;;;;;;;;;;22.07;49.74;100451.16;6247812;23;20004;-84
2022/06/28 09:53:30;;;;;;;2.85;0.75;;;;;;;21.97;50.62;100447.53;6247930;23;19957;-88
2022/06/28 09:56:05;;;;;;;5.78;1.08;;;;;;;21.69;48.46;100448.63;6247138;23;20057;-88
2022/06/28 09:58:30;;;;;;;4.00;1.42;;;;;;;21.87;47.05;100453.41;6247237;23;20058;-88
2022/06/28 10:00:56;;;;;;;3.35;1.15;;;;;;;21.86;48.39;100447.06;6247876;23;20340;-88
2022/06/28 10:03:21;;;;;;;3.10;1.00;;;;;;;22.12;48.49;100445.41;6247310;23;20010;-84
2022/06/28 10:05:47;;;;;;;2.30;0.85;;;;;;;22.58;47.65;100447.78;6246581;23;20015;-85
2022/06/28 10:08:12;;;;;;;2.05;1.00;;;;;;;22.33;44.73;100445.56;6242676;23;20014;-78
2022/06/28 10:10:40;;;;;;;1.80;0.80;;;;;;;22.66;46.87;100449.78;6240863;23;20006;-78
2022/06/28 10:16:11;;;;;;;4.18;1.15;;;;;;;22.24;48.75;100445.56;6197797;23;20038;-78
2022/06/28 10:18:40;;;;;;;3.45;0.75;;;;;;;21.67;48.53;100442.59;6243448;23;20004;-80
2022/06/28 10:21:05;;;;;;;3.25;1.02;;;;;;;21.60;51.10;100433.13;6242919;23;20083;-80
2022/06/28 10:23:42;;;;;;;3.30;1.27;;;;;;;21.91;49.55;100437.75;6243179;23;20031;-80
2022/06/28 10:26:17;;;;;;;3.47;1.13;;;;;;;22.31;44.69;100438.72;6241333;23;20238;-80
2022/06/28 10:29:05;;;;;;;3.45;0.80;;;;;;;22.62;43.58;100437.66;6245088;23;20008;-84
2022/06/28 10:31:33;;;;;;;2.70;0.98;;;;;;;22.90;43.35;100426.19;6245369;23;20000;-83
2022/06/28 10:34:04;;;;;;;2.45;0.82;;;;;;;22.95;42.27;100425.16;6244587;23;20036;-82
2022/06/28 10:36:41;;;;;;;6.40;0.93;;;;;;;23.13;42.97;100427.84;6244134;23;20443;-88
2022/06/28 10:39:09;;;;;;;4.55;0.70;;;;;;;23.07;42.55;100416.09;6245781;23;20008;-88
2022/06/28 10:41:43;;;;;;;3.97;0.80;;;;;;;23.03;43.86;100412.38;6245603;23;20004;-85
2022/06/28 10:44:18;;;;;;;4.22;1.08;;;;;;;23.08;44.26;100409.41;6245229;23;20004;-84
2022/06/28 10:46:49;;;;;;;9.10;1.23;;;;;;;23.49;40.41;100400.69;6245306;23;20010;-84
2022/06/28 10:49:14;;;;;;;3.60;0.75;;;;;;;23.77;41.45;100394.59;6245699;23;20019;-84
2022/06/28 10:52:17;;;;;;;3.58;0.80;;;;;;;24.03;42.46;100396.31;6244913;23;20016;-80
2022/06/28 10:54:51;;;;;;;3.03;1.08;;;;;;;23.99;40.10;100395.38;6214697;23;20483;-80
2022/06/28 10:57:22;;;;;;;5.30;1.27;;;;;;;23.92;40.00;100390.34;6240262;23;20011;-78
2022/06/28 10:59:49;;;;;;;2.50;0.85;;;;;;;23.88;39.64;100393.00;6239569;23;20331;-78
2022/06/28 11:02:14;;;;;;;4.53;1.20;;;;;;;24.01;40.64;100385.53;6242199;23;20576;-88
2022/06/28 11:04:40;;;;;;;2.40;0.85;;;;;;;24.19;40.09;100381.75;6245910;23;20051;-88
2022/06/28 11:07:19;;;;;;;3.78;0.93;;;;;;;24.45;39.79;100370.38;6242868;23;20011;-77
2022/06/28 11:09:47;;;;;;;2.42;0.90;;;;;;;24.74;39.55;100381.66;6239170;23;20630;-77
2022/06/28 11:12:15;;;;;;;7.60;0.60;;;;;;;24.31;38.43;100375.44;6239804;23;20008;-78
2022/06/28 11:14:59;;;;;;;3.15;0.80;;;;;;;24.50;38.41;100369.34;6239671;23;20043;-78
2022/06/28 11:17:31;;;;;;;6.63;0.95;;;;;;;24.45;37.37;100372.34;6243154;23;20000;-89
2022/06/28 11:20:01;;;;;;;2.78;0.88;;;;;;;24.71;39.42;100374.81;6246028;23;20038;-89
2022/06/28 11:22:36;;;;;;;3.38;1.42;;;;;;;25.10;37.48;100372.88;6243610;23;20005;-81
2022/06/28 11:25:05;;;;;;;2.95;0.60;;;;;;;24.63;36.82;100369.34;6195974;23;1068589;-81
2022/06/28 11:27:31;;;;;;;4.22;0.70;;;;;;;25.21;37.14;100367.63;6245645;23;20069;-89
2022/06/28 11:29:59;;;;;;;2.50;0.65;;;;;;;25.55;38.10;100359.88;6247496;23;20063;-89
2022/06/28 11:32:26;;;;;;;1.17;0.65;;;;;;;25.67;37.32;100367.38;6245186;23;20007;-81